タシュケント の空港の天気 - METARとTAF

タシケント空港 ( UTTT / TAS ) - ウズベキスタン タシュケント
飛行場実況気象(Metar)
観測時間08/25 23:30 UZT (08/25 18:30 UTC)
風向・風速東 3m/s
視程10km以上
天気現象
なし
気温23℃
湿度44%
気圧1010hPa
METARUTTT 251830Z 08006KT CAVOK 23/10 Q1010 R08R/CLRD70 NOSIG
過去の天気等 Google飛行場航空写真 Wunderground天気予報

過去48時間のMETAR

飛行場予報(TAF)
発表時間: 8/25 22:00 UZT (8/25 17:00 UTC)
予報対象時間: 25日23時 UZT ~ 26日23時 UZT
風向・風速東北東 6m/s
視程7000m
なし
TAF UTTT 251700Z 2518/2618 06012KT 7000 NSC TX36/2610Z